斑竹:听风岁月
 标题 作者 点击 回复 回复时间
荣威的车友们有用过OBD盒子的吗? 就让网事随风疗 48 1 09-18 14:39
找到了风景不错的拍摄地,谈谈我的小RX8真实用车感受 水果味黄瓜期 110162 62 09-18 14:38
高德这样带路怕是要被交警抓起来吧 赤火炎焱恫 7081 6 09-18 14:38
成都车展可算是看爽了,美滋滋啊!!! 想忘记应33 190 5 09-18 14:37
750熄火了 马蹄子上的铁 16 1 09-18 14:37
近期想入手RX5铂金版 吕士杰 60 1 09-18 14:36
荣威的OBD接口在哪呢?求问大神 下辈子当熊猫匆 31 2 09-18 14:36
荣威车友建群 Lilyseagate 29 2 09-18 14:35
荣威350 自动豪华带天窗 车行小伙 16 2 09-18 14:35
好好开车的斑竹又被怼了 听风岁月 40 0 07-17 18:59
荣威350玻璃贴膜应该怎么贴?这么选就对了! 孤独的根号僖 20 0 07-16 09:20
有需要雨刷的吗?打算免费送一些 界无集 25 1 07-07 08:54
荣威汽车需要贴太阳膜吗?上海的夏天很热! 孤独的根号僖 36 0 07-04 14:01
荣威RX5汽车音响升级超薄低音炮,音质动听!—海口源聚汽车生活馆 猫扑夜话 76 0 06-27 18:18
每年都要扎一次,心疼 听风岁月 66 0 06-15 12:42
兄弟,下巴痛不 听风岁月 52 0 06-15 12:36
兄弟,PG痛不? 听风岁月 48 0 06-10 20:41
荣威i6 2018款 20T 自动互联网智享版 携筱親 154 0 05-14 14:38
车,对一个男人来说那么重要吗意义在哪? 苏锦大大666 110 1 03-31 12:59
超低油耗的一款“神器”,你值得拥有 张馨艺_prevalen 251 4 03-31 12:58
智付 (Dinpay)是中国领先的独立第三方支付公司(转载) 刷锅ABC 21 1 03-31 12:57
小六子我的第二辆车已经到手,出来交下提车作业 小混侠瞿88 171 2 03-31 12:34
还在因为荣威ERX5的续航里程担忧吗? reconcil可爱小 344 0 09-14 14:49
荣威ERX5解决你的后顾之忧 deviatio心理咨 304 0 09-14 14:49
无论从什么角度欣赏我的i6都是那么的美! fake美好未来何 149 0 09-07 13:16
早买早享受,我买的i6可以提车了! 暗夜深狱暗夜深5 170 0 09-07 13:08
颜值控的代表——荣威i6 身体太绕卓00 179 0 09-07 13:01
我家的白色荣威i6,真是低调而奢华 墨小调贡_wring 295 0 09-07 12:50
试驾荣威i6,简单说下试驾感受 黄爱飞厍66 198 0 09-07 12:46
如果你以为i6只是漂亮又省油,那么你会失去很多乐趣 殇夏无伤11 139 1 09-07 12:42
荣威i6,你买车不得不看的品牌! forersrs 151 0 09-07 12:34
功能强大又省油的i6,内饰细节也非常用心 把酒封杯云nut 78 0 09-07 12:30
新到家的荣威i6拉出来晒晒 揮霍小advertis 108 0 09-06 17:11
居家实用型家轿——荣威i6 integritmlml 76 0 09-06 16:23
荣威i6,终于到手了! nickname做那最 94 0 09-05 14:14
和大家说说我用荣威i6的感受吧! discours虾嬷嬷 145 0 09-05 14:06
颜值控选它准没错 bugle阿迪安娜麻 25 0 09-04 16:12
荣威i6性价比是不是真有那么好? marshal柠檬淡茶 192 1 09-04 16:01
试驾君告诉你:荣威ERX5有多帅 evaporat我们好 132 0 09-03 12:01
新车异味问题,有朋友可以支个招吗? correlat未完待 49 0 09-03 11:43
话不多说,直接说一说荣威i6用车感受 marginaleses 86 0 09-03 11:27
国产车里,我觉得它还是不错的。 champion歌手潘 95 0 09-03 11:23
车展见i6,有点小惊喜~ 村落农instabil 58 2 08-31 18:10
轰轰烈烈的成都车展正在火热举行 uproar我是土豆 21 0 08-30 21:15
成都车展拉开帷幕,期待期待 木头娃娃柳77 12 0 08-30 19:55
人头攒动的成都车展啊! subscrip小佐 23 2 08-30 10:07
成都车展里面一些升级和改款车型也颇有看点 kineticshsh 19 0 08-30 08:22
朋友跳票,一人看展收获颇丰! consulxixi 12 0 08-29 20:22
来车展的目的只有一个,探访我心中的混动车 deposit红莲人形 23 0 08-29 19:30
居家代步小能手——荣威360用车作业 end土狗刀刀陆 83 0 08-29 18:07
【成都车展】靓车美女汇集地 潇湘枫雨inertia 48 2 08-29 14:34
成都车展荣威又给我们展示了什么新花样 quarterl一爱一 30 0 08-28 20:59
豪车美女,让你挪不开眼睛! 幻海雨夜衡66 69 3 08-26 22:11
美女如云,成都车展进行中 deviatio心理咨 55 2 08-26 22:11
又来车展了,听说还是规模最大的一次,个人看好改款950 燃瞿33 41 2 08-26 22:10
按耐不住提车的喜悦,说说我的小e migrate船过水无 33 0 08-26 17:40
寻找36D小姐姐,成都车展福利走一遭~ reconcil可爱小 231 0 08-26 16:48
成都车展,带你撩豪车看美女 西楼月如勾尤11 56 2 08-26 14:39
成都车展了,小伙伴们有去围观的没? 暗夜深狱暗夜深5 23 2 08-26 14:38
跟着我走,成都车展看个够 梦花飘雪77 27 2 08-26 14:36
除了新款950还有成都美食 远东二中怀33 31 2 08-26 14:34
i6的用车小感,油耗我还算满意 身体太绕卓00 53 0 08-24 20:41
全是缘分,喜提爱车 fake美好未来何 37 0 08-23 12:02
不得不说荣威i6真的值得购买 墨小调贡_wring 138 0 08-22 20:44
带着朋友自驾游去长白山咯 黄爱飞厍66 36 0 08-22 14:45
保养归来 遭遇倾盆大雨 殇夏无伤11 27 0 08-22 14:45
难得的聚会,深圳车友小聚马峦山 揮霍小advertis 25 0 08-21 21:38
今天看了一下i6觉得挺牛逼的 把酒封杯云nut 32 0 08-21 20:22
从你的世界路过,然后带上i6一起回家! quartz冯绒绒 18 0 08-21 20:10
荣威550 1.8L艾森ECU升级,感受中前段提速惊喜!(转载) kiji2015 43 0 08-21 17:32
卖小车换大车,你们怎么选择的 integritmlml 33 0 08-21 13:07
爱上一座山,爱上一趟旅行 nickname做那最 13 0 08-21 12:12
开着新车出游,心情杠杠的 discours虾嬷嬷 15 0 08-21 12:01
提车荣威i6后有感 就是我韶_wrench 64 0 08-21 11:29
首次带着我的荣威i6做了面膜,保养之后更靓了 marshal柠檬淡茶 41 1 08-21 11:00
今天给大家分享一下我的I6使用初体验 张馨艺_prevalen 26 0 08-21 10:56
荣威RX5使用三个月后的感受 我是恋晨韦22 340 1 08-20 19:12
来自一位荣威RX5车主的用车心得 evaporat我们好 304 0 08-20 19:04
关于荣威RX5,早提早开走! correlat未完待 198 0 08-20 18:53
暑假到了,就让我们驾着爱车荣威I6,一起贵州游 marginaleses 23 0 08-20 18:09